Lontetree, Wyoming
Current Conditions -  °F | °C
As of 1:55 PM on Tuesday 27 Jan 2015 (Local Time) from KFBR Reporting Station
Broken Clouds Broken Clouds  
Wind Chill: 45°   Ceiling: 11000
Heat Index: 45°   Visibility: 10mi
Dew Point: 31°   Wind: 0mph
Humidity: 58%   Direction: NA
Pressure: 30.22"   Gusts: NA
Location:  41.04°N, 110.17°W
Report Text: KFBR 272055Z AUTO 00000KT 10SM SCT070 BKN110 07/M01 A3022 RMK AO2 T00701008
Loading
Personal Weather Stations






























Interactive Weather Map New forecast layout! Learn more

10-Day Weather Forecast

Advertisements
Track Severe Weather on mobile